createdAt,value
2017-04-29T00:00:42.346Z,11.18
2017-04-29T00:01:51.302Z,11.21
2017-04-29T00:03:00.512Z,11.14
2017-04-29T00:04:09.472Z,11.07
2017-04-29T00:05:18.754Z,11.11
2017-04-29T00:06:27.711Z,11.09
2017-04-29T00:07:36.664Z,11.07
2017-04-29T00:08:45.873Z,11.18
2017-04-29T00:09:55.162Z,11.06
2017-04-29T00:11:04.447Z,11.06
2017-04-29T00:12:13.487Z,11.04
2017-04-29T00:13:22.766Z,11.1
2017-04-29T00:14:31.978Z,11.17
2017-04-29T00:15:40.938Z,11.03
2017-04-29T00:16:49.979Z,11.04
2017-04-29T00:17:59.260Z,11.02
2017-04-29T00:19:08.224Z,10.99
2017-04-29T00:20:17.433Z,11.02
2017-04-29T00:21:26.388Z,10.88
2017-04-29T00:22:35.341Z,10.84
2017-04-29T00:23:44.293Z,10.89
2017-04-29T00:24:53.569Z,10.81
2017-04-29T00:26:03.508Z,10.76
2017-04-29T00:27:12.464Z,10.78
2017-04-29T00:28:21.425Z,10.71
2017-04-29T00:29:30.376Z,10.76
2017-04-29T00:30:39.347Z,10.68
2017-04-29T00:31:48.556Z,10.63
2017-04-29T00:32:57.597Z,10.59
2017-04-29T00:34:06.967Z,10.52
2017-04-29T00:35:15.923Z,10.56
2017-04-29T00:36:24.969Z,10.52
2017-04-29T00:37:34.175Z,10.59
2017-04-29T00:38:43.297Z,10.61
2017-04-29T00:39:52.250Z,10.47
2017-04-29T00:41:01.203Z,10.56
2017-04-29T00:42:10.156Z,10.52
2017-04-29T00:43:19.357Z,10.52
2017-04-29T00:44:28.324Z,10.48
2017-04-29T00:45:37.272Z,10.47
2017-04-29T00:46:46.222Z,10.55
2017-04-29T00:47:55.263Z,10.42
2017-04-29T00:49:04.469Z,10.47
2017-04-29T00:50:13.421Z,10.59
2017-04-29T00:51:22.455Z,10.42
2017-04-29T00:52:31.419Z,10.48
2017-04-29T00:53:40.380Z,10.52
2017-04-29T00:54:49.585Z,10.47
2017-04-29T00:55:58.622Z,10.53
2017-04-29T00:57:07.568Z,10.52
2017-04-29T00:58:16.522Z,10.44
2017-04-29T00:59:25.476Z,10.38
2017-04-29T01:00:34.680Z,10.38
2017-04-29T01:01:43.631Z,10.3
2017-04-29T01:02:52.593Z,10.33
2017-04-29T01:04:01.639Z,10.32
2017-04-29T01:05:10.597Z,10.29
2017-04-29T01:06:19.801Z,10.23
2017-04-29T01:07:28.853Z,10.25
2017-04-29T01:08:37.813Z,10.27
2017-04-29T01:09:46.769Z,10.2
2017-04-29T01:10:55.720Z,10.22
2017-04-29T01:12:04.922Z,10.22
2017-04-29T01:13:13.875Z,10.14
2017-04-29T01:14:22.834Z,10.04
2017-04-29T01:15:31.788Z,10.01
2017-04-29T01:16:40.736Z,9.87
2017-04-29T01:17:50.030Z,9.76
2017-04-29T01:18:58.992Z,9.87
2017-04-29T01:20:07.946Z,9.65
2017-04-29T01:21:16.896Z,9.68
2017-04-29T01:22:25.849Z,9.65
2017-04-29T01:23:35.055Z,9.56
2017-04-29T01:24:44.007Z,9.43
2017-04-29T01:25:52.956Z,9.35
2017-04-29T01:27:01.906Z,9.32
2017-04-29T01:28:10.947Z,9.31
2017-04-29T01:29:20.144Z,9.31
2017-04-29T01:30:29.095Z,9.26
2017-04-29T01:31:38.079Z,9.18
2017-04-29T01:32:47.035Z,9.21
2017-04-29T01:33:55.991Z,9.2
2017-04-29T01:35:05.198Z,9.08
2017-04-29T01:36:14.235Z,9.13
2017-04-29T01:37:23.194Z,9.08
2017-04-29T01:38:32.236Z,9.02
2017-04-29T01:39:41.185Z,9.08
2017-04-29T01:40:50.385Z,9.01
2017-04-29T01:41:59.341Z,9.01
2017-04-29T01:43:08.293Z,8.94
2017-04-29T01:44:17.245Z,8.91
2017-04-29T01:45:26.199Z,8.8
2017-04-29T01:46:35.400Z,8.92
2017-04-29T01:47:44.355Z,8.86
2017-04-29T01:48:53.314Z,8.76
2017-04-29T01:50:02.268Z,8.83
2017-04-29T01:51:11.222Z,8.83
2017-04-29T01:52:20.422Z,8.94
2017-04-29T01:53:29.381Z,8.81
2017-04-29T01:54:38.338Z,8.8
2017-04-29T01:55:47.288Z,8.81
2017-04-29T01:56:56.325Z,8.73
2017-04-29T01:58:05.545Z,8.77
2017-04-29T01:59:14.507Z,8.83
2017-04-29T02:00:23.458Z,8.8
2017-04-29T02:01:32.413Z,8.86
2017-04-29T02:02:41.448Z,8.86
2017-04-29T02:03:50.661Z,8.81
2017-04-29T02:04:59.618Z,8.77
2017-04-29T02:06:08.571Z,8.89
2017-04-29T02:07:17.529Z,8.86
2017-04-29T02:08:26.481Z,8.84
2017-04-29T02:09:35.720Z,8.83
2017-04-29T02:10:44.674Z,8.81
2017-04-29T02:11:53.713Z,8.83
2017-04-29T02:13:02.662Z,8.83
2017-04-29T02:14:11.612Z,8.87
2017-04-29T02:15:20.818Z,8.92
2017-04-29T02:16:30.097Z,8.96
2017-04-29T02:17:39.054Z,9.02
2017-04-29T02:18:48.100Z,9.01
2017-04-29T02:19:57.057Z,9.01
2017-04-29T02:21:06.261Z,8.92
2017-04-29T02:22:15.218Z,9.01
2017-04-29T02:23:24.276Z,9.08
2017-04-29T02:24:33.235Z,8.96
2017-04-29T02:25:42.189Z,8.87
2017-04-29T02:26:51.393Z,8.83
2017-04-29T02:28:00.442Z,8.71
2017-04-29T02:29:09.399Z,8.7
2017-04-29T02:30:18.353Z,8.66
2017-04-29T02:31:27.304Z,8.68
2017-04-29T02:32:36.509Z,8.68
2017-04-29T02:33:45.548Z,8.71
2017-04-29T02:34:54.501Z,8.74
2017-04-29T02:36:03.454Z,8.84
2017-04-29T02:37:12.405Z,8.81
2017-04-29T02:38:21.609Z,8.86
2017-04-29T02:39:30.600Z,8.83
2017-04-29T02:40:39.550Z,8.91
2017-04-29T02:41:48.512Z,8.84
2017-04-29T02:42:57.466Z,8.91
2017-04-29T02:44:07.001Z,8.84
2017-04-29T02:45:15.954Z,8.84
2017-04-29T02:46:24.907Z,8.8
2017-04-29T02:47:33.953Z,8.79
2017-04-29T02:48:42.996Z,8.83
2017-04-29T02:49:52.201Z,8.87
2017-04-29T02:51:01.154Z,8.84
2017-04-29T02:52:10.117Z,8.86
2017-04-29T02:53:19.070Z,8.83
2017-04-29T02:54:28.355Z,8.83
2017-04-29T02:55:37.648Z,8.8
2017-04-29T02:56:46.599Z,8.81
2017-04-29T02:57:55.555Z,8.74
2017-04-29T02:59:04.511Z,8.74
2017-04-29T03:00:13.464Z,8.77
2017-04-29T03:01:22.665Z,8.84
2017-04-29T03:02:31.621Z,8.8
2017-04-29T03:03:40.586Z,8.77
2017-04-29T03:04:49.536Z,8.76
2017-04-29T03:05:58.492Z,8.71
2017-04-29T03:07:07.692Z,8.7
2017-04-29T03:08:16.644Z,8.7
2017-04-29T03:09:25.593Z,8.7
2017-04-29T03:10:34.542Z,8.7
2017-04-29T03:11:43.578Z,8.63
2017-04-29T03:12:52.865Z,8.66
2017-04-29T03:14:01.817Z,8.61
2017-04-29T03:15:10.765Z,8.65
2017-04-29T03:16:19.713Z,8.62
2017-04-29T03:17:28.755Z,8.58
2017-04-29T03:18:37.963Z,8.58
2017-04-29T03:19:46.912Z,8.45
2017-04-29T03:20:55.869Z,8.5
2017-04-29T03:22:05.657Z,8.44
2017-04-29T03:23:14.607Z,8.43
2017-04-29T03:24:23.813Z,8.44
2017-04-29T03:25:32.764Z,8.47
2017-04-29T03:26:41.720Z,8.43
2017-04-29T03:27:50.674Z,8.44
2017-04-29T03:28:59.638Z,8.37
2017-04-29T03:30:08.932Z,8.41
2017-04-29T03:31:17.972Z,8.37
2017-04-29T03:32:26.921Z,8.36
2017-04-29T03:33:35.874Z,8.55
2017-04-29T03:34:44.822Z,8.48
2017-04-29T03:35:54.171Z,8.48
2017-04-29T03:37:03.127Z,8.53
2017-04-29T03:38:12.258Z,8.48
2017-04-29T03:39:21.214Z,8.44
2017-04-29T03:40:30.168Z,8.38
2017-04-29T03:41:39.377Z,8.44
2017-04-29T03:42:48.418Z,8.45
2017-04-29T03:43:57.378Z,8.43
2017-04-29T03:45:06.332Z,8.41
2017-04-29T03:46:15.281Z,8.4
2017-04-29T03:47:24.519Z,8.36
2017-04-29T03:48:33.797Z,8.36
2017-04-29T03:49:42.837Z,8.34
2017-04-29T03:50:51.791Z,8.34
2017-04-29T03:52:01.071Z,8.34
2017-04-29T03:53:10.275Z,8.29
2017-04-29T03:54:19.228Z,8.4
2017-04-29T03:55:28.595Z,8.33
2017-04-29T03:56:37.552Z,8.33
2017-04-29T03:57:46.513Z,8.36
2017-04-29T03:58:55.717Z,8.38
2017-04-29T04:00:04.992Z,8.37
2017-04-29T04:01:13.946Z,8.48
2017-04-29T04:02:22.900Z,8.53
2017-04-29T04:03:31.943Z,8.34
2017-04-29T04:04:41.149Z,8.43
2017-04-29T04:05:50.107Z,8.43
2017-04-29T04:06:59.150Z,8.38
2017-04-29T04:08:08.108Z,8.38
2017-04-29T04:09:17.144Z,8.36
2017-04-29T04:10:26.684Z,8.45
2017-04-29T04:11:35.641Z,8.44
2017-04-29T04:12:44.596Z,8.41
2017-04-29T04:13:53.554Z,8.43
2017-04-29T04:15:02.504Z,8.45
2017-04-29T04:16:11.707Z,8.43
2017-04-29T04:17:20.661Z,8.44
2017-04-29T04:18:29.613Z,8.43
2017-04-29T04:19:38.567Z,8.3
2017-04-29T04:20:47.612Z,8.34
2017-04-29T04:21:56.823Z,8.18
2017-04-29T04:23:05.867Z,8.29
2017-04-29T04:24:14.824Z,8.34
2017-04-29T04:25:23.780Z,8.16
2017-04-29T04:26:32.728Z,8.22
2017-04-29T04:27:41.980Z,8.19
2017-04-29T04:28:50.939Z,8.2
2017-04-29T04:29:59.893Z,8.23
2017-04-29T04:31:08.932Z,8.29
2017-04-29T04:32:17.881Z,8.29
2017-04-29T04:33:27.085Z,8.29
2017-04-29T04:34:36.044Z,8.28
2017-04-29T04:35:44.993Z,8.37
2017-04-29T04:36:53.955Z,8.33
2017-04-29T04:38:02.912Z,8.28
2017-04-29T04:39:12.167Z,8.33
2017-04-29T04:40:21.132Z,8.33
2017-04-29T04:41:30.502Z,8.3
2017-04-29T04:42:39.457Z,8.26
2017-04-29T04:43:48.410Z,8.23
2017-04-29T04:44:57.619Z,8.26
2017-04-29T04:46:06.577Z,8.22
2017-04-29T04:47:15.536Z,8.22
2017-04-29T04:48:24.488Z,8.19
2017-04-29T04:49:33.448Z,8.37
2017-04-29T04:50:42.702Z,8.41
2017-04-29T04:51:51.651Z,8.41
2017-04-29T04:53:00.732Z,8.37
2017-04-29T04:54:09.684Z,8.33
2017-04-29T04:55:18.638Z,8.29
2017-04-29T04:56:27.839Z,8.3
2017-04-29T04:57:36.792Z,8.25
2017-04-29T04:58:45.751Z,8.34
2017-04-29T04:59:54.709Z,8.41
2017-04-29T05:01:03.669Z,8.41
2017-04-29T05:02:12.916Z,8.4
2017-04-29T05:03:21.873Z,8.43
2017-04-29T05:04:30.825Z,8.43
2017-04-29T05:05:39.778Z,8.41
2017-04-29T05:06:48.733Z,8.47
2017-04-29T05:07:57.993Z,8.48
2017-04-29T05:09:06.955Z,8.52
2017-04-29T05:10:15.918Z,8.52
2017-04-29T05:11:24.871Z,8.53
2017-04-29T05:12:33.909Z,8.47
2017-04-29T05:13:43.163Z,8.5
2017-04-29T05:14:52.114Z,8.44
2017-04-29T05:16:01.065Z,8.5
2017-04-29T05:17:10.013Z,8.43
2017-04-29T05:18:18.963Z,8.43
2017-04-29T05:19:28.166Z,8.41
2017-04-29T05:20:37.119Z,8.47
2017-04-29T05:21:46.072Z,8.37
2017-04-29T05:22:55.024Z,8.41
2017-04-29T05:24:04.068Z,8.43
2017-04-29T05:25:13.274Z,8.43
2017-04-29T05:26:22.225Z,8.44
2017-04-29T05:27:31.177Z,8.59
2017-04-29T05:28:40.126Z,8.63
2017-04-29T05:29:49.080Z,8.55
2017-04-29T05:30:58.283Z,8.68
2017-04-29T05:32:07.565Z,8.71
2017-04-29T05:33:16.525Z,8.79
2017-04-29T05:34:25.485Z,8.89
2017-04-29T05:35:34.440Z,8.86
2017-04-29T05:36:43.651Z,8.87
2017-04-29T05:37:52.611Z,8.92
2017-04-29T05:39:01.571Z,8.89
2017-04-29T05:40:10.611Z,8.95
2017-04-29T05:41:19.560Z,8.91
2017-04-29T05:42:28.815Z,8.89
2017-04-29T05:43:37.771Z,8.94
2017-04-29T05:44:46.727Z,8.87
2017-04-29T05:45:55.678Z,8.89
2017-04-29T05:47:04.630Z,8.86
2017-04-29T05:48:13.836Z,8.81
2017-04-29T05:49:22.791Z,8.81
2017-04-29T05:50:31.745Z,8.65
2017-04-29T05:51:40.700Z,8.61
2017-04-29T05:52:49.658Z,8.62
2017-04-29T05:53:59.211Z,8.65
2017-04-29T05:55:08.178Z,8.66
2017-04-29T05:56:17.126Z,8.66
2017-04-29T05:57:26.079Z,8.65
2017-04-29T05:58:35.033Z,8.58
2017-04-29T05:59:44.235Z,8.61
2017-04-29T06:00:53.188Z,8.59
2017-04-29T06:02:02.146Z,8.47
2017-04-29T06:03:11.100Z,8.43
2017-04-29T06:04:20.145Z,8.38
2017-04-29T06:05:29.357Z,8.48
2017-04-29T06:06:38.312Z,8.55
2017-04-29T06:07:47.278Z,8.48
2017-04-29T06:08:56.234Z,8.53
2017-04-29T06:10:05.184Z,8.43
2017-04-29T06:11:14.475Z,8.48
2017-04-29T06:12:23.425Z,8.62
2017-04-29T06:13:32.790Z,8.56
2017-04-29T06:14:41.763Z,8.68
2017-04-29T06:15:50.804Z,8.59
2017-04-29T06:17:00.005Z,8.62
2017-04-29T06:18:08.963Z,8.48
2017-04-29T06:19:18.249Z,8.53
2017-04-29T06:20:27.204Z,8.5
2017-04-29T06:21:36.479Z,8.47
2017-04-29T06:22:45.813Z,8.55
2017-04-29T06:23:54.773Z,8.5
2017-04-29T06:25:03.816Z,8.45
2017-04-29T06:26:12.770Z,8.45
2017-04-29T06:27:21.750Z,8.48
2017-04-29T06:28:30.954Z,8.47
2017-04-29T06:29:39.905Z,8.56
2017-04-29T06:30:48.856Z,8.63
2017-04-29T06:31:57.809Z,8.65
2017-04-29T06:33:06.761Z,8.79
2017-04-29T06:34:15.971Z,8.81
2017-04-29T06:35:24.927Z,8.8
2017-04-29T06:36:33.878Z,8.94
2017-04-29T06:37:42.829Z,8.91
2017-04-29T06:38:51.790Z,9.01
2017-04-29T06:40:00.995Z,8.96
2017-04-29T06:41:09.949Z,9.08
2017-04-29T06:42:18.943Z,9.1
2017-04-29T06:43:27.894Z,9.04
2017-04-29T06:44:36.849Z,9.01
2017-04-29T06:45:46.101Z,9.01
2017-04-29T06:46:55.053Z,8.96
2017-04-29T06:48:04.009Z,8.86
2017-04-29T06:49:13.054Z,9.04
2017-04-29T06:50:22.095Z,9.14
2017-04-29T06:51:31.352Z,9.2
2017-04-29T06:52:40.636Z,9.17
2017-04-29T06:53:49.585Z,9.32
2017-04-29T06:54:58.538Z,9.32
2017-04-29T06:56:07.485Z,9.39
2017-04-29T06:57:16.690Z,9.4
2017-04-29T06:58:25.637Z,9.43
2017-04-29T06:59:34.682Z,9.48
2017-04-29T07:00:43.634Z,9.43
2017-04-29T07:01:52.585Z,9.46
2017-04-29T07:03:01.793Z,9.43
2017-04-29T07:04:10.750Z,9.43
2017-04-29T07:05:19.701Z,9.21
2017-04-29T07:06:28.649Z,9.18
2017-04-29T07:07:37.607Z,9.15
2017-04-29T07:08:46.825Z,9.13
2017-04-29T07:09:55.780Z,9.04
2017-04-29T07:11:04.734Z,9.14
2017-04-29T07:12:13.683Z,9.14
2017-04-29T07:13:22.729Z,9.13
2017-04-29T07:14:31.986Z,9.17
2017-04-29T07:15:40.978Z,9.17
2017-04-29T07:16:49.929Z,9.18
2017-04-29T07:17:58.884Z,9.18
2017-04-29T07:19:07.842Z,9.32
2017-04-29T07:20:17.050Z,9.24
2017-04-29T07:21:26.010Z,9.17
2017-04-29T07:22:34.958Z,9.18
2017-04-29T07:23:43.917Z,9.18
2017-04-29T07:24:52.879Z,9.33
2017-04-29T07:26:02.084Z,9.28
2017-04-29T07:27:11.038Z,9.43
2017-04-29T07:28:19.990Z,9.48
2017-04-29T07:29:28.966Z,9.42
2017-04-29T07:30:38.235Z,9.51
2017-04-29T07:31:47.439Z,9.53
2017-04-29T07:32:56.394Z,9.5
2017-04-29T07:34:05.348Z,9.48
2017-04-29T07:35:14.318Z,9.48
2017-04-29T07:36:23.267Z,9.47
2017-04-29T07:37:32.472Z,9.32
2017-04-29T07:38:41.433Z,9.17
2017-04-29T07:39:50.389Z,9.17
2017-04-29T07:40:59.340Z,9.29
2017-04-29T07:42:08.621Z,9.39
2017-04-29T07:43:18.237Z,9.4
2017-04-29T07:44:27.192Z,9.46
2017-04-29T07:45:36.229Z,9.38
2017-04-29T07:46:45.185Z,9.54
2017-04-29T07:47:54.146Z,9.54
2017-04-29T07:49:03.369Z,9.51
2017-04-29T07:50:12.332Z,9.79
2017-04-29T07:51:21.370Z,9.84
2017-04-29T07:52:30.321Z,9.9
2017-04-29T07:53:39.279Z,9.89
2017-04-29T07:54:48.492Z,10.09
2017-04-29T07:55:57.450Z,10.18
2017-04-29T07:57:06.407Z,10.22
2017-04-29T07:58:15.361Z,10.22
2017-04-29T07:59:24.320Z,10.09
2017-04-29T08:00:33.583Z,9.81
2017-04-29T08:01:42.541Z,9.9
2017-04-29T08:02:51.495Z,9.9
2017-04-29T08:04:00.540Z,9.79
2017-04-29T08:05:09.500Z,9.71
2017-04-29T08:06:18.793Z,9.71
2017-04-29T08:07:27.753Z,9.68
2017-04-29T08:08:36.709Z,9.83
2017-04-29T08:09:45.746Z,9.93
2017-04-29T08:10:55.020Z,9.87
2017-04-29T08:12:04.275Z,9.94
2017-04-29T08:13:13.225Z,10.01
2017-04-29T08:14:22.182Z,9.86
2017-04-29T08:15:31.136Z,9.96
2017-04-29T08:16:40.090Z,9.87
2017-04-29T08:17:49.341Z,9.89
2017-04-29T08:18:58.297Z,9.81
2017-04-29T08:20:07.340Z,9.71
2017-04-29T08:21:16.383Z,9.53
2017-04-29T08:22:25.336Z,9.53
2017-04-29T08:23:34.594Z,9.5
2017-04-29T08:24:43.553Z,9.43
2017-04-29T08:25:52.681Z,9.35
2017-04-29T08:27:01.636Z,9.23
2017-04-29T08:28:10.599Z,9.13
2017-04-29T08:29:19.801Z,9.04
2017-04-29T08:30:28.756Z,8.95
2017-04-29T08:31:37.708Z,8.86
2017-04-29T08:32:46.658Z,8.8
2017-04-29T08:33:55.616Z,8.84
2017-04-29T08:35:04.823Z,8.81
2017-04-29T08:36:14.105Z,8.73
2017-04-29T08:37:23.057Z,8.68
2017-04-29T08:38:32.336Z,8.66
2017-04-29T08:39:41.287Z,8.63
2017-04-29T08:40:50.494Z,8.65
2017-04-29T08:41:59.545Z,8.68
2017-04-29T08:43:08.503Z,8.73
2017-04-29T08:44:17.458Z,8.77
2017-04-29T08:45:26.410Z,8.74
2017-04-29T08:46:35.615Z,8.81
2017-04-29T08:47:44.574Z,8.84
2017-04-29T08:48:53.618Z,9.05
2017-04-29T08:50:02.576Z,9.13
2017-04-29T08:51:11.530Z,9.15
2017-04-29T08:52:20.824Z,9.13
2017-04-29T08:53:29.782Z,9.29
2017-04-29T08:54:38.738Z,9.38
2017-04-29T08:55:48.022Z,9.4
2017-04-29T08:56:56.974Z,9.47
2017-04-29T08:58:06.184Z,9.57
2017-04-29T08:59:15.463Z,9.5
2017-04-29T09:00:24.415Z,9.46
2017-04-29T09:01:33.364Z,9.5
2017-04-29T09:02:42.315Z,9.48
2017-04-29T09:03:51.522Z,9.5
2017-04-29T09:05:00.803Z,9.66
2017-04-29T09:06:09.753Z,9.76
2017-04-29T09:07:18.704Z,9.89
2017-04-29T09:08:27.983Z,9.75
2017-04-29T09:09:37.186Z,9.99
2017-04-29T09:10:46.140Z,10.12
2017-04-29T09:11:55.090Z,10.29
2017-04-29T09:13:04.044Z,10.25
2017-04-29T09:14:13.006Z,10.27
2017-04-29T09:15:22.263Z,10.11
2017-04-29T09:16:31.220Z,10.12
2017-04-29T09:17:40.177Z,10.09
2017-04-29T09:18:49.138Z,10.27
2017-04-29T09:19:58.093Z,10.38
2017-04-29T09:21:07.434Z,10.33
2017-04-29T09:22:16.397Z,10.45
2017-04-29T09:23:25.352Z,10.45
2017-04-29T09:24:34.306Z,10.48
2017-04-29T09:25:43.297Z,10.59
2017-04-29T09:26:52.498Z,10.56
2017-04-29T09:28:01.537Z,10.71
2017-04-29T09:29:10.508Z,10.86
2017-04-29T09:30:19.463Z,11
2017-04-29T09:31:28.412Z,11.04
2017-04-29T09:32:37.666Z,11.02
2017-04-29T09:33:46.641Z,10.99
2017-04-29T09:34:55.599Z,11.09
2017-04-29T09:36:04.559Z,11.09
2017-04-29T09:37:13.513Z,11
2017-04-29T09:38:23.094Z,11.07
2017-04-29T09:39:32.052Z,11.14
2017-04-29T09:40:41.018Z,11.06
2017-04-29T09:41:49.971Z,11.18
2017-04-29T09:42:59.018Z,11.06
2017-04-29T09:44:08.285Z,11.11
2017-04-29T09:45:17.248Z,11.24
2017-04-29T09:46:26.202Z,11.18
2017-04-29T09:47:35.156Z,11.11
2017-04-29T09:48:44.117Z,11.11
2017-04-29T09:49:53.384Z,11.25
2017-04-29T09:51:02.343Z,11.32
2017-04-29T09:52:11.386Z,11.42
2017-04-29T09:53:20.341Z,11.42
2017-04-29T09:54:29.306Z,11.58
2017-04-29T09:55:38.511Z,11.57
2017-04-29T09:56:47.467Z,11.57
2017-04-29T09:57:56.515Z,11.62
2017-04-29T09:59:05.475Z,11.73
2017-04-29T10:00:14.430Z,11.73
2017-04-29T10:01:23.775Z,11.72
2017-04-29T10:02:32.823Z,11.67
2017-04-29T10:03:41.779Z,11.62
2017-04-29T10:04:50.751Z,11.55
2017-04-29T10:05:59.796Z,11.58
2017-04-29T10:07:09.140Z,11.62
2017-04-29T10:08:18.098Z,11.64
2017-04-29T10:09:27.059Z,11.72
2017-04-29T10:10:36.017Z,11.72
2017-04-29T10:11:45.311Z,11.62
2017-04-29T10:12:54.848Z,11.76
2017-04-29T10:14:03.815Z,11.76
2017-04-29T10:15:12.785Z,11.83
2017-04-29T10:16:21.740Z,11.9
2017-04-29T10:17:30.696Z,11.96
2017-04-29T10:18:39.909Z,12.12
2017-04-29T10:19:48.870Z,12.07
2017-04-29T10:20:57.833Z,12.14
2017-04-29T10:22:06.791Z,12.07
2017-04-29T10:23:15.747Z,12.16
2017-04-29T10:24:24.961Z,12.14
2017-04-29T10:25:34.094Z,12.21
2017-04-29T10:26:43.048Z,12.19
2017-04-29T10:27:52.006Z,12.14
2017-04-29T10:29:01.297Z,12.05
2017-04-29T10:30:10.505Z,12.04
2017-04-29T10:31:19.459Z,12.05
2017-04-29T10:32:28.413Z,12.13
2017-04-29T10:33:37.370Z,12.1
2017-04-29T10:34:46.324Z,12.21
2017-04-29T10:35:55.529Z,12.1
2017-04-29T10:37:04.483Z,12.07
2017-04-29T10:38:13.439Z,11.99
2017-04-29T10:39:22.396Z,12.04
2017-04-29T10:40:31.360Z,11.85
2017-04-29T10:41:40.752Z,11.8
2017-04-29T10:42:49.709Z,11.82
2017-04-29T10:43:58.669Z,11.88
2017-04-29T10:45:07.635Z,11.91
2017-04-29T10:46:16.587Z,11.96
2017-04-29T10:47:25.860Z,12.01
2017-04-29T10:48:34.828Z,12.01
2017-04-29T10:49:43.785Z,11.99
2017-04-29T10:50:52.749Z,12.07
2017-04-29T10:52:01.709Z,12.07
2017-04-29T10:53:11.145Z,12.12
2017-04-29T10:54:20.107Z,12.12
2017-04-29T10:55:29.071Z,12.1
2017-04-29T10:56:38.118Z,12.27
2017-04-29T10:57:47.077Z,12.32
2017-04-29T10:58:56.429Z,12.38
2017-04-29T11:00:05.389Z,12.39
2017-04-29T11:01:14.352Z,12.41
2017-04-29T11:02:23.312Z,12.42
2017-04-29T11:03:32.305Z,12.52
2017-04-29T11:04:41.619Z,12.53
2017-04-29T11:05:50.572Z,12.46
2017-04-29T11:06:59.610Z,12.41
2017-04-29T11:08:08.566Z,12.42
2017-04-29T11:09:17.527Z,12.39
2017-04-29T11:10:26.743Z,12.38
2017-04-29T11:11:35.794Z,12.45
2017-04-29T11:12:44.754Z,12.49
2017-04-29T11:13:53.721Z,12.57
2017-04-29T11:15:02.678Z,12.57
2017-04-29T11:16:11.887Z,12.57
2017-04-29T11:17:20.855Z,12.71
2017-04-29T11:18:29.813Z,12.78
2017-04-29T11:19:38.768Z,12.72
2017-04-29T11:20:47.719Z,12.65
2017-04-29T11:21:56.978Z,12.54
2017-04-29T11:23:05.943Z,12.67
2017-04-29T11:24:14.902Z,12.68
2017-04-29T11:25:23.865Z,12.71
2017-04-29T11:26:32.947Z,12.71
2017-04-29T11:27:42.293Z,12.72
2017-04-29T11:28:51.253Z,12.82
2017-04-29T11:30:00.218Z,12.86
2017-04-29T11:31:09.171Z,12.97
2017-04-29T11:32:18.129Z,13.04
2017-04-29T11:33:27.335Z,13.1
2017-04-29T11:34:36.298Z,13.12
2017-04-29T11:35:45.260Z,13.2
2017-04-29T11:36:54.214Z,13.15
2017-04-29T11:38:03.171Z,13
2017-04-29T11:39:12.519Z,12.96
2017-04-29T11:40:21.476Z,12.79
2017-04-29T11:41:30.760Z,12.93
2017-04-29T11:42:39.718Z,12.86
2017-04-29T11:43:48.695Z,12.87
2017-04-29T11:44:57.902Z,12.82
2017-04-29T11:46:06.861Z,12.75
2017-04-29T11:47:15.819Z,12.67
2017-04-29T11:48:24.774Z,12.62
2017-04-29T11:49:33.728Z,12.45
2017-04-29T11:50:42.939Z,12.41
2017-04-29T11:51:51.982Z,12.34
2017-04-29T11:53:00.945Z,12.2
2017-04-29T11:54:09.907Z,12.13
2017-04-29T11:55:18.868Z,12.1
2017-04-29T11:56:28.081Z,12.07
2017-04-29T11:57:37.362Z,11.99
2017-04-29T11:58:46.315Z,11.95
2017-04-29T11:59:55.361Z,11.86
2017-04-29T12:01:04.325Z,11.83
2017-04-29T12:02:13.536Z,11.91
2017-04-29T12:03:22.487Z,11.88
2017-04-29T12:04:31.444Z,11.83
2017-04-29T12:05:40.393Z,11.83
2017-04-29T12:06:49.351Z,11.88
2017-04-29T12:07:58.699Z,11.95
2017-04-29T12:09:07.668Z,11.98
2017-04-29T12:10:16.630Z,12.12
2017-04-29T12:11:25.584Z,12.2
2017-04-29T12:12:34.539Z,12.27
2017-04-29T12:13:43.833Z,12.24
2017-04-29T12:14:52.790Z,12.37
2017-04-29T12:16:01.754Z,12.49
2017-04-29T12:17:10.711Z,12.59
2017-04-29T12:18:19.673Z,12.7
2017-04-29T12:19:28.882Z,12.79
2017-04-29T12:20:37.833Z,12.86
2017-04-29T12:21:46.785Z,13.01
2017-04-29T12:22:55.752Z,13.08
2017-04-29T12:24:04.710Z,13
2017-04-29T12:25:14.057Z,13.01
2017-04-29T12:26:23.014Z,12.89
2017-04-29T12:27:31.971Z,12.86
2017-04-29T12:28:40.930Z,12.95
2017-04-29T12:29:49.887Z,12.89
2017-04-29T12:30:59.144Z,12.79
2017-04-29T12:32:08.100Z,12.71
2017-04-29T12:33:17.145Z,12.71
2017-04-29T12:34:26.111Z,12.62
2017-04-29T12:35:35.387Z,12.56
2017-04-29T12:36:44.590Z,12.56
2017-04-29T12:37:53.546Z,12.42
2017-04-29T12:39:02.502Z,12.41
2017-04-29T12:40:11.469Z,12.46
2017-04-29T12:41:20.432Z,12.46
2017-04-29T12:42:29.689Z,12.5
2017-04-29T12:43:38.647Z,12.46
2017-04-29T12:44:47.602Z,12.46
2017-04-29T12:45:56.562Z,12.5
2017-04-29T12:47:05.521Z,12.47
2017-04-29T12:48:14.777Z,12.39
2017-04-29T12:49:23.735Z,12.41
2017-04-29T12:50:32.689Z,12.37
2017-04-29T12:51:41.645Z,12.21
2017-04-29T12:52:50.694Z,12.31
2017-04-29T12:53:59.958Z,12.34
2017-04-29T12:55:08.908Z,12.31
2017-04-29T12:56:17.868Z,12.28
2017-04-29T12:57:26.821Z,12.24
2017-04-29T12:58:35.778Z,12.16
2017-04-29T12:59:45.037Z,12.23
2017-04-29T13:00:53.995Z,12.32
2017-04-29T13:02:02.951Z,12.29
2017-04-29T13:03:11.918Z,12.2
2017-04-29T13:04:20.882Z,12.16
2017-04-29T13:05:30.143Z,12.19
2017-04-29T13:06:39.098Z,12.24
2017-04-29T13:07:48.057Z,12.31
2017-04-29T13:08:57.023Z,12.39
2017-04-29T13:10:05.984Z,12.5
2017-04-29T13:11:15.197Z,12.56
2017-04-29T13:12:24.152Z,12.71
2017-04-29T13:13:33.115Z,12.71
2017-04-29T13:14:42.076Z,12.72
2017-04-29T13:15:51.033Z,12.85
2017-04-29T13:17:00.241Z,13
2017-04-29T13:18:09.199Z,13.15
2017-04-29T13:19:18.258Z,13.19
2017-04-29T13:20:27.216Z,13.32
2017-04-29T13:21:36.262Z,13.41
2017-04-29T13:22:45.517Z,13.39
2017-04-29T13:23:54.483Z,13.46
2017-04-29T13:25:03.448Z,13.38
2017-04-29T13:26:12.406Z,13.44
2017-04-29T13:27:21.368Z,13.41
2017-04-29T13:28:30.952Z,13.41
2017-04-29T13:29:39.915Z,13.26
2017-04-29T13:30:48.868Z,13.22
2017-04-29T13:31:57.827Z,13.29
2017-04-29T13:33:06.783Z,13.28
2017-04-29T13:34:16.105Z,13.38
2017-04-29T13:35:25.061Z,13.38
2017-04-29T13:36:34.017Z,13.39
2017-04-29T13:37:42.989Z,13.39
2017-04-29T13:38:51.945Z,13.45
2017-04-29T13:40:01.532Z,13.28
2017-04-29T13:41:10.611Z,13.23
2017-04-29T13:42:19.569Z,13.22
2017-04-29T13:43:28.848Z,13.29
2017-04-29T13:44:37.894Z,13.2
2017-04-29T13:45:47.190Z,13.2
2017-04-29T13:46:56.147Z,13.28
2017-04-29T13:48:05.109Z,13.26
2017-04-29T13:49:14.070Z,13.12
2017-04-29T13:50:23.040Z,13.17
2017-04-29T13:51:32.245Z,13.17
2017-04-29T13:52:41.205Z,13.28
2017-04-29T13:53:50.169Z,13.17
2017-04-29T13:54:59.149Z,13.11
2017-04-29T13:56:08.106Z,13.19
2017-04-29T13:57:17.313Z,13.15
2017-04-29T13:58:26.276Z,13.07
2017-04-29T13:59:35.232Z,13.07
2017-04-29T14:00:44.185Z,12.95
2017-04-29T14:01:53.145Z,12.9
2017-04-29T14:03:02.679Z,12.9
2017-04-29T14:04:11.650Z,12.89
2017-04-29T14:05:20.605Z,12.89
2017-04-29T14:06:29.562Z,12.74
2017-04-29T14:07:38.532Z,12.7
2017-04-29T14:08:47.828Z,12.68
2017-04-29T14:09:56.886Z,12.65
2017-04-29T14:11:05.875Z,12.68
2017-04-29T14:12:14.829Z,12.68
2017-04-29T14:13:23.791Z,12.7
2017-04-29T14:14:32.994Z,12.72
2017-04-29T14:15:41.950Z,12.74
2017-04-29T14:16:50.909Z,12.83
2017-04-29T14:17:59.868Z,12.85
2017-04-29T14:19:08.829Z,12.85
2017-04-29T14:20:18.035Z,12.86
2017-04-29T14:21:26.989Z,12.95
2017-04-29T14:22:35.944Z,13.05
2017-04-29T14:23:44.902Z,13.12
2017-04-29T14:24:53.866Z,13.11
2017-04-29T14:26:03.078Z,13.11
2017-04-29T14:27:12.358Z,13.2
2017-04-29T14:28:21.318Z,13.28
2017-04-29T14:29:30.276Z,13.38
2017-04-29T14:30:39.233Z,13.42
2017-04-29T14:31:48.445Z,13.36
2017-04-29T14:32:57.401Z,13.44
2017-04-29T14:34:06.353Z,13.39
2017-04-29T14:35:15.308Z,13.28
2017-04-29T14:36:24.265Z,13.1
2017-04-29T14:37:33.470Z,13.08
2017-04-29T14:38:42.428Z,12.97
2017-04-29T14:39:51.384Z,12.85
2017-04-29T14:41:00.340Z,12.77
2017-04-29T14:42:09.298Z,12.57
2017-04-29T14:43:18.518Z,12.5
2017-04-29T14:44:27.802Z,12.39
2017-04-29T14:45:37.081Z,12.32
2017-04-29T14:46:46.357Z,12.21
2017-04-29T14:47:55.315Z,12.1
2017-04-29T14:49:04.527Z,12.07
2017-04-29T14:50:13.484Z,11.96
2017-04-29T14:51:22.438Z,12.02
2017-04-29T14:52:31.389Z,11.9
2017-04-29T14:53:40.348Z,11.83
2017-04-29T14:54:49.560Z,11.73
2017-04-29T14:55:58.516Z,11.69
2017-04-29T14:57:07.471Z,11.6
2017-04-29T14:58:16.431Z,11.47
2017-04-29T14:59:25.395Z,11.47
2017-04-29T15:00:34.605Z,11.46
2017-04-29T15:01:43.560Z,11.49
2017-04-29T15:02:52.516Z,11.4
2017-04-29T15:04:01.533Z,11.36
2017-04-29T15:05:10.498Z,11.54
2017-04-29T15:06:19.753Z,11.49
2017-04-29T15:07:28.706Z,11.57